Terminal Aerodrome Forecast
Issued by NWS

Home | Current Version | Previous Version | Text Only | Print | Product List | Glossary On
Versions: 1 2 3 4 5 6 7 8 9 10 11 12 13 14 15 16 17 18 19 20
645
FTUS41 KCAR 051723
TAFFVE
TAF
KFVE 051723Z 0518/0618 00000KT P6SM BKN007
     FM052300 00000KT P6SM BKN025
     FM060200 00000KT P6SM OVC015
     FM060400 00000KT P6SM OVC020
     FM061500 31005KT P6SM BKN015=

USA.gov is the U.S. government's official web portal to all federal, state and local government web resources and services.